<?xml version="1.0" encoding="UTF-8" standalone="no" ?>
<gpx xmlns="http://www.topografix.com/GPX/1/1" xmlns:xsi="http://www.w3.org/2001/XMLSchema-instance" xsi:schemaLocation="http://www.topografix.com/GPX/1/1 http://www.topografix.com/GPX/1/1/gpx.xsd" version="1.1" creator="VisuGPX - https://www.visugpx.com">
  <metadata>
    <name>Carriere</name>
    <desc><![CDATA[Acces carrière VICAT SASSENAGE]]></desc>
  </metadata>
  <trk>
    <name><![CDATA[Carriere]]></name>
    <trkseg>
      <trkpt lat="45.22411" lon="5.64893">
        <ele>373.6094971</ele>
        <time>2009-11-28T14:58:27Z</time>
      </trkpt>
      <trkpt lat="45.22427" lon="5.64873">
        <ele>373.6094971</ele>
        <time>2009-11-28T14:58:17Z</time>
      </trkpt>
      <trkpt lat="45.22481" lon="5.64844">
        <ele>375.5321045</ele>
        <time>2009-11-28T14:58:03Z</time>
      </trkpt>
      <trkpt lat="45.22529" lon="5.64778">
        <ele>376.4935303</ele>
        <time>2009-11-28T14:57:46Z</time>
      </trkpt>
      <trkpt lat="45.22546" lon="5.64752">
        <ele>377.454834</ele>
        <time>2009-11-28T14:57:38Z</time>
      </trkpt>
      <trkpt lat="45.22571" lon="5.64704">
        <ele>376.4935303</ele>
        <time>2009-11-28T14:57:27Z</time>
      </trkpt>
      <trkpt lat="45.22591" lon="5.64668">
        <ele>379.8580322</ele>
        <time>2009-11-28T14:57:16Z</time>
      </trkpt>
      <trkpt lat="45.22603" lon="5.64633">
        <ele>378.8968506</ele>
        <time>2009-11-28T14:56:37Z</time>
      </trkpt>
      <trkpt lat="45.22611" lon="5.64607">
        <ele>378.8968506</ele>
        <time>2009-11-28T14:56:33Z</time>
      </trkpt>
      <trkpt lat="45.22635" lon="5.64546">
        <ele>380.819458</ele>
        <time>2009-11-28T14:56:23Z</time>
      </trkpt>
      <trkpt lat="45.22627" lon="5.64521">
        <ele>381.3000488</ele>
        <time>2009-11-28T14:56:18Z</time>
      </trkpt>
      <trkpt lat="45.22626" lon="5.64517">
        <ele>381.3000488</ele>
        <time>2009-11-28T14:56:17Z</time>
      </trkpt>
      <trkpt lat="45.22622" lon="5.64513">
        <ele>384.6647949</ele>
        <time>2009-11-28T14:56:07Z</time>
      </trkpt>
      <trkpt lat="45.22622" lon="5.64515">
        <ele>388.5100098</ele>
        <time>2009-11-28T14:56:05Z</time>
      </trkpt>
      <trkpt lat="45.22616" lon="5.64408">
        <ele>402.4490967</ele>
        <time>2009-11-28T14:55:44Z</time>
      </trkpt>
      <trkpt lat="45.227" lon="5.64353">
        <ele>404.3717041</ele>
        <time>2009-11-28T14:55:16Z</time>
      </trkpt>
      <trkpt lat="45.22735" lon="5.64333">
        <ele>402.4490967</ele>
        <time>2009-11-28T14:55:03Z</time>
      </trkpt>
      <trkpt lat="45.22817" lon="5.64347">
        <ele>400.0458984</ele>
        <time>2009-11-28T14:54:35Z</time>
      </trkpt>
      <trkpt lat="45.22857" lon="5.64319">
        <ele>401.487793</ele>
        <time>2009-11-28T14:54:22Z</time>
      </trkpt>
      <trkpt lat="45.22868" lon="5.64308">
        <ele>401.487793</ele>
        <time>2009-11-28T14:54:16Z</time>
      </trkpt>
      <trkpt lat="45.22867" lon="5.64269">
        <ele>406.7749023</ele>
        <time>2009-11-28T14:54:07Z</time>
      </trkpt>
      <trkpt lat="45.22845" lon="5.64217">
        <ele>412.5428467</ele>
        <time>2009-11-28T14:53:52Z</time>
      </trkpt>
      <trkpt lat="45.22857" lon="5.64156">
        <ele>410.6202393</ele>
        <time>2009-11-28T14:53:24Z</time>
      </trkpt>
      <trkpt lat="45.22864" lon="5.64128">
        <ele>407.2556152</ele>
        <time>2009-11-28T14:53:08Z</time>
      </trkpt>
      <trkpt lat="45.22874" lon="5.64098">
        <ele>403.4104004</ele>
        <time>2009-11-28T14:52:53Z</time>
      </trkpt>
      <trkpt lat="45.2289" lon="5.64081">
        <ele>399.0843506</ele>
        <time>2009-11-28T14:52:42Z</time>
      </trkpt>
      <trkpt lat="45.22895" lon="5.64057">
        <ele>393.3165283</ele>
        <time>2009-11-28T14:52:26Z</time>
      </trkpt>
      <trkpt lat="45.22898" lon="5.64044">
        <ele>391.3937988</ele>
        <time>2009-11-28T14:52:21Z</time>
      </trkpt>
      <trkpt lat="45.22911" lon="5.64027">
        <ele>385.6259766</ele>
        <time>2009-11-28T14:52:07Z</time>
      </trkpt>
      <trkpt lat="45.22925" lon="5.6403">
        <ele>381.3000488</ele>
        <time>2009-11-28T14:51:56Z</time>
      </trkpt>
      <trkpt lat="45.22964" lon="5.63984">
        <ele>379.8580322</ele>
        <time>2009-11-28T14:51:36Z</time>
      </trkpt>
      <trkpt lat="45.22998" lon="5.63928">
        <ele>379.3774414</ele>
        <time>2009-11-28T14:51:19Z</time>
      </trkpt>
      <trkpt lat="45.23043" lon="5.63905">
        <ele>376.0128174</ele>
        <time>2009-11-28T14:51:07Z</time>
      </trkpt>
      <trkpt lat="45.23085" lon="5.6386">
        <ele>379.8580322</ele>
        <time>2009-11-28T14:50:46Z</time>
      </trkpt>
      <trkpt lat="45.2311" lon="5.63821">
        <ele>377.9354248</ele>
        <time>2009-11-28T14:50:19Z</time>
      </trkpt>
      <trkpt lat="45.23117" lon="5.638">
        <ele>374.5708008</ele>
        <time>2009-11-28T14:50:09Z</time>
      </trkpt>
      <trkpt lat="45.2313" lon="5.63763">
        <ele>370.7255859</ele>
        <time>2009-11-28T14:49:48Z</time>
      </trkpt>
      <trkpt lat="45.23133" lon="5.63739">
        <ele>370.244873</ele>
        <time>2009-11-28T14:49:34Z</time>
      </trkpt>
      <trkpt lat="45.23137" lon="5.63706">
        <ele>363.9963379</ele>
        <time>2009-11-28T14:49:09Z</time>
      </trkpt>
      <trkpt lat="45.23145" lon="5.63681">
        <ele>359.1896973</ele>
        <time>2009-11-28T14:48:41Z</time>
      </trkpt>
      <trkpt lat="45.2315" lon="5.63667">
        <ele>354.3831787</ele>
        <time>2009-11-28T14:48:28Z</time>
      </trkpt>
      <trkpt lat="45.23179" lon="5.63606">
        <ele>349.5765381</ele>
        <time>2009-11-28T14:47:51Z</time>
      </trkpt>
      <trkpt lat="45.23191" lon="5.63592">
        <ele>350.057251</ele>
        <time>2009-11-28T14:47:40Z</time>
      </trkpt>
      <trkpt lat="45.23196" lon="5.63556">
        <ele>346.2120361</ele>
        <time>2009-11-28T14:47:24Z</time>
      </trkpt>
      <trkpt lat="45.23197" lon="5.6355">
        <ele>342.84729</ele>
        <time>2009-11-28T14:47:13Z</time>
      </trkpt>
      <trkpt lat="45.23218" lon="5.63521">
        <ele>337.0794678</ele>
        <time>2009-11-28T14:46:41Z</time>
      </trkpt>
      <trkpt lat="45.23236" lon="5.63501">
        <ele>330.8309326</ele>
        <time>2009-11-28T14:46:11Z</time>
      </trkpt>
      <trkpt lat="45.23259" lon="5.63472">
        <ele>324.5822754</ele>
        <time>2009-11-28T14:45:39Z</time>
      </trkpt>
      <trkpt lat="45.2329" lon="5.6343">
        <ele>318.3336182</ele>
        <time>2009-11-28T14:45:08Z</time>
      </trkpt>
      <trkpt lat="45.2329" lon="5.63427">
        <ele>314.9691162</ele>
        <time>2009-11-28T14:44:54Z</time>
      </trkpt>
      <trkpt lat="45.23293" lon="5.63424">
        <ele>311.6044922</ele>
        <time>2009-11-28T14:44:41Z</time>
      </trkpt>
      <trkpt lat="45.23299" lon="5.63421">
        <ele>307.7592773</ele>
        <time>2009-11-28T14:44:23Z</time>
      </trkpt>
      <trkpt lat="45.23311" lon="5.6341">
        <ele>301.5106201</ele>
        <time>2009-11-28T14:43:57Z</time>
      </trkpt>
      <trkpt lat="45.23318" lon="5.63425">
        <ele>298.1461182</ele>
        <time>2009-11-28T14:43:43Z</time>
      </trkpt>
      <trkpt lat="45.23323" lon="5.63426">
        <ele>294.3007813</ele>
        <time>2009-11-28T14:43:29Z</time>
      </trkpt>
      <trkpt lat="45.23333" lon="5.63416">
        <ele>290.4555664</ele>
        <time>2009-11-28T14:43:01Z</time>
      </trkpt>
      <trkpt lat="45.23355" lon="5.63419">
        <ele>284.6876221</ele>
        <time>2009-11-28T14:42:39Z</time>
      </trkpt>
      <trkpt lat="45.23368" lon="5.63419">
        <ele>281.322998</ele>
        <time>2009-11-28T14:42:30Z</time>
      </trkpt>
      <trkpt lat="45.23384" lon="5.6342">
        <ele>277.958252</ele>
        <time>2009-11-28T14:42:20Z</time>
      </trkpt>
      <trkpt lat="45.23404" lon="5.63429">
        <ele>274.1130371</ele>
        <time>2009-11-28T14:42:09Z</time>
      </trkpt>
      <trkpt lat="45.23471" lon="5.63395">
        <ele>271.229126</ele>
        <time>2009-11-28T14:41:34Z</time>
      </trkpt>
      <trkpt lat="45.23476" lon="5.63393">
        <ele>271.229126</ele>
        <time>2009-11-28T14:41:32Z</time>
      </trkpt>
      <trkpt lat="45.23488" lon="5.63391">
        <ele>267.864502</ele>
        <time>2009-11-28T14:41:21Z</time>
      </trkpt>
      <trkpt lat="45.23495" lon="5.63396">
        <ele>267.3839111</ele>
        <time>2009-11-28T14:41:10Z</time>
      </trkpt>
      <trkpt lat="45.23517" lon="5.63408">
        <ele>262.0965576</ele>
        <time>2009-11-28T14:40:45Z</time>
      </trkpt>
      <trkpt lat="45.23538" lon="5.6342">
        <ele>258.7319336</ele>
        <time>2009-11-28T14:40:27Z</time>
      </trkpt>
      <trkpt lat="45.2355" lon="5.63409">
        <ele>255.8480225</ele>
        <time>2009-11-28T14:40:15Z</time>
      </trkpt>
      <trkpt lat="45.23571" lon="5.63394">
        <ele>250.0802002</ele>
        <time>2009-11-28T14:39:54Z</time>
      </trkpt>
      <trkpt lat="45.23589" lon="5.63389">
        <ele>244.3122559</ele>
        <time>2009-11-28T14:39:40Z</time>
      </trkpt>
      <trkpt lat="45.23611" lon="5.63383">
        <ele>240.9476318</ele>
        <time>2009-11-28T14:39:28Z</time>
      </trkpt>
      <trkpt lat="45.23663" lon="5.63362">
        <ele>235.1796875</ele>
        <time>2009-11-28T14:39:01Z</time>
      </trkpt>
      <trkpt lat="45.23716" lon="5.63329">
        <ele>230.3730469</ele>
        <time>2009-11-28T14:38:35Z</time>
      </trkpt>
      <trkpt lat="45.23747" lon="5.63305">
        <ele>230.3730469</ele>
        <time>2009-11-28T14:38:20Z</time>
      </trkpt>
      <trkpt lat="45.23787" lon="5.63318">
        <ele>225.5665283</ele>
        <time>2009-11-28T14:37:58Z</time>
      </trkpt>
      <trkpt lat="45.23792" lon="5.6332">
        <ele>225.0859375</ele>
        <time>2009-11-28T14:37:52Z</time>
      </trkpt>
      <trkpt lat="45.23794" lon="5.6332">
        <ele>225.0859375</ele>
        <time>2009-11-28T14:37:49Z</time>
      </trkpt>
      <trkpt lat="45.23843" lon="5.63334">
        <ele>218.8372803</ele>
        <time>2009-11-28T14:37:25Z</time>
      </trkpt>
      <trkpt lat="45.23878" lon="5.63343">
        <ele>216.43396</ele>
        <time>2009-11-28T14:37:12Z</time>
      </trkpt>
      <trkpt lat="45.23927" lon="5.63374">
        <ele>211.6274414</ele>
        <time>2009-11-28T14:36:51Z</time>
      </trkpt>
    </trkseg>
  </trk>
</gpx>